createdAt,value
2022-10-02T00:01:41.176Z,8.8
2022-10-02T00:04:21.916Z,8.8
2022-10-02T00:06:52.606Z,8.8
2022-10-02T00:09:23.221Z,8.8
2022-10-02T00:11:53.809Z,8.8
2022-10-02T00:14:24.385Z,8.7
2022-10-02T00:16:55.015Z,8.6
2022-10-02T00:19:35.676Z,8.6
2022-10-02T00:22:06.274Z,8.5
2022-10-02T00:24:36.838Z,8.4
2022-10-02T00:27:07.423Z,8.4
2022-10-02T00:29:38.028Z,8.4
2022-10-02T00:32:08.660Z,8.4
2022-10-02T00:34:49.316Z,8.4
2022-10-02T00:37:19.895Z,8.3
2022-10-02T00:42:20.688Z,8.3
2022-10-02T00:44:51.287Z,8.2
2022-10-02T00:47:21.864Z,8.2
2022-10-02T00:50:02.455Z,8.2
2022-10-02T00:52:33.030Z,8.2
2022-10-02T00:55:03.660Z,8.2
2022-10-02T00:57:34.241Z,8.1
2022-10-02T01:00:04.852Z,8.1
2022-10-02T01:02:45.434Z,8.1
2022-10-02T01:05:16.053Z,8.0
2022-10-02T01:07:46.642Z,8.0
2022-10-02T01:10:17.262Z,8.0
2022-10-02T01:12:47.876Z,8.1
2022-10-02T01:15:18.479Z,8.0
2022-10-02T01:17:59.118Z,8.0
2022-10-02T01:23:09.856Z,8.0
2022-10-02T01:25:40.441Z,8.0
2022-10-02T01:28:11.133Z,8.0
2022-10-02T01:30:41.924Z,8.0
2022-10-02T01:33:22.513Z,8.0
2022-10-02T01:35:53.070Z,8.0
2022-10-02T01:38:23.659Z,8.0
2022-10-02T01:40:54.264Z,8.0
2022-10-02T01:43:24.865Z,8.0
2022-10-02T01:45:55.540Z,8.0
2022-10-02T01:48:36.416Z,8.0
2022-10-02T01:51:07.014Z,8.1
2022-10-02T01:53:37.621Z,8.1
2022-10-02T01:56:08.229Z,8.1
2022-10-02T01:58:38.825Z,8.1
2022-10-02T02:06:19.698Z,8.2
2022-10-02T02:08:50.314Z,8.2
2022-10-02T02:11:22.586Z,8.2
2022-10-02T02:16:33.444Z,8.2
2022-10-02T02:19:04.394Z,8.3
2022-10-02T02:21:34.995Z,8.3
2022-10-02T02:24:05.582Z,8.3
2022-10-02T02:26:36.474Z,8.3
2022-10-02T02:29:07.237Z,8.3
2022-10-02T02:31:47.863Z,8.3
2022-10-02T02:34:18.634Z,8.3
2022-10-02T02:36:49.213Z,8.3
2022-10-02T02:39:19.828Z,8.3
2022-10-02T02:44:20.565Z,8.3
2022-10-02T02:47:01.168Z,8.3
2022-10-02T02:49:31.781Z,8.3
2022-10-02T02:52:02.364Z,8.3
2022-10-02T02:54:32.970Z,8.3
2022-10-02T02:57:03.590Z,8.3
2022-10-02T02:59:34.170Z,8.3
2022-10-02T03:02:14.821Z,8.2
2022-10-02T03:04:45.611Z,8.3
2022-10-02T03:07:16.205Z,8.2
2022-10-02T03:09:46.819Z,8.2
2022-10-02T03:12:17.407Z,8.2
2022-10-02T03:14:48.005Z,8.2
2022-10-02T03:17:28.613Z,8.2
2022-10-02T03:19:59.187Z,8.2
2022-10-02T03:24:59.937Z,8.2
2022-10-02T03:27:34.085Z,8.2
2022-10-02T03:30:15.546Z,8.2
2022-10-02T03:32:46.171Z,8.2
2022-10-02T03:35:16.781Z,8.2
2022-10-02T03:37:47.404Z,8.2
2022-10-02T03:40:17.989Z,8.2
2022-10-02T03:42:48.562Z,8.2
2022-10-02T03:45:49.780Z,8.2
2022-10-02T03:48:01.183Z,8.2
2022-10-02T03:50:36.172Z,8.2
2022-10-02T03:52:56.966Z,8.2
2022-10-02T03:55:27.585Z,8.2
2022-10-02T03:57:58.174Z,8.2
2022-10-02T04:00:38.781Z,8.2
2022-10-02T04:05:49.520Z,8.2
2022-10-02T04:08:20.104Z,8.2
2022-10-02T04:10:50.692Z,8.1
2022-10-02T04:13:21.259Z,8.1
2022-10-02T04:16:01.888Z,8.1
2022-10-02T04:18:32.866Z,8.1
2022-10-02T04:21:03.452Z,8.1
2022-10-02T04:26:04.171Z,8.1
2022-10-02T04:28:44.782Z,8.1
2022-10-02T04:31:15.411Z,8.1
2022-10-02T04:33:46.104Z,8.1
2022-10-02T04:38:46.847Z,8.1
2022-10-02T04:46:27.736Z,8.1
2022-10-02T04:48:58.843Z,8.2
2022-10-02T04:51:29.411Z,8.2
2022-10-02T04:54:00.010Z,8.2
2022-10-02T04:56:30.593Z,8.2
2022-10-02T04:59:11.200Z,8.2
2022-10-02T05:01:41.808Z,8.2
2022-10-02T05:04:12.611Z,8.2
2022-10-02T05:06:43.198Z,8.2
2022-10-02T05:09:13.808Z,8.2
2022-10-02T05:11:48.698Z,8.2
2022-10-02T05:14:29.470Z,8.2
2022-10-02T05:17:00.071Z,8.2
2022-10-02T05:19:30.664Z,8.2
2022-10-02T05:22:01.244Z,8.3
2022-10-02T05:27:12.023Z,8.3
2022-10-02T05:29:42.614Z,8.4
2022-10-02T05:32:13.207Z,8.3
2022-10-02T05:34:43.837Z,8.3
2022-10-02T05:37:14.431Z,8.3
2022-10-02T05:39:45.016Z,8.3
2022-10-02T05:42:25.608Z,8.3
2022-10-02T05:44:59.636Z,8.4
2022-10-02T05:47:30.233Z,8.4
2022-10-02T05:50:00.816Z,8.4
2022-10-02T05:52:31.417Z,8.4
2022-10-02T05:55:02.016Z,8.4
2022-10-02T05:57:42.615Z,8.4
2022-10-02T06:00:13.201Z,8.4
2022-10-02T06:02:43.763Z,8.4
2022-10-02T06:07:44.483Z,8.4
2022-10-02T06:10:15.073Z,8.4
2022-10-02T06:12:55.661Z,8.4
2022-10-02T06:15:26.259Z,8.4
2022-10-02T06:17:56.844Z,8.4
2022-10-02T06:20:27.454Z,8.4
2022-10-02T06:22:58.042Z,8.4
2022-10-02T06:25:28.658Z,8.5
2022-10-02T06:28:09.277Z,8.4
2022-10-02T06:30:40.154Z,8.5
2022-10-02T06:33:10.756Z,8.5
2022-10-02T06:35:41.358Z,8.5
2022-10-02T06:38:11.943Z,8.5
2022-10-02T06:40:52.565Z,8.5
2022-10-02T06:48:23.432Z,8.5
2022-10-02T06:50:54.039Z,8.6
2022-10-02T06:53:24.630Z,8.6
2022-10-02T06:56:05.224Z,8.6
2022-10-02T06:58:35.835Z,8.6
2022-10-02T07:01:06.519Z,8.6
2022-10-02T07:03:37.332Z,8.6
2022-10-02T07:06:07.916Z,8.6
2022-10-02T07:08:38.509Z,8.6
2022-10-02T07:11:19.099Z,8.7
2022-10-02T07:13:49.674Z,8.7
2022-10-02T07:16:20.304Z,8.7
2022-10-02T07:18:51.476Z,8.7
2022-10-02T07:21:22.069Z,8.7
2022-10-02T07:23:52.756Z,8.8
2022-10-02T07:29:03.515Z,8.7
2022-10-02T07:31:34.148Z,8.8
2022-10-02T07:34:05.016Z,8.8
2022-10-02T07:36:35.758Z,8.8
2022-10-02T07:39:16.518Z,8.9
2022-10-02T07:41:47.121Z,9.1
2022-10-02T07:44:17.717Z,9.1
2022-10-02T07:46:48.294Z,9.1
2022-10-02T07:49:18.875Z,9.2
2022-10-02T07:51:49.436Z,9.2
2022-10-02T07:54:30.049Z,9.2
2022-10-02T07:57:00.636Z,9.2
2022-10-02T07:59:31.241Z,9.2
2022-10-02T08:02:01.859Z,9.2
2022-10-02T08:04:36.125Z,9.2
2022-10-02T08:09:47.623Z,9.2
2022-10-02T08:12:18.160Z,9.3
2022-10-02T08:14:48.751Z,9.3
2022-10-02T08:17:19.329Z,9.2
2022-10-02T08:19:49.938Z,9.2
2022-10-02T08:22:20.577Z,9.2
2022-10-02T08:25:01.174Z,9.2
2022-10-02T08:27:31.743Z,9.3
2022-10-02T08:30:02.376Z,9.2
2022-10-02T08:32:34.837Z,9.2
2022-10-02T08:35:05.610Z,9.2
2022-10-02T08:37:36.209Z,9.3
2022-10-02T08:40:16.817Z,9.4
2022-10-02T08:42:47.417Z,9.4
2022-10-02T08:45:18.063Z,9.4
2022-10-02T08:50:18.906Z,9.5
2022-10-02T08:52:59.496Z,9.5
2022-10-02T08:55:30.101Z,9.4
2022-10-02T08:58:00.697Z,9.4
2022-10-02T09:03:01.459Z,9.5
2022-10-02T09:05:32.030Z,9.5
2022-10-02T09:08:12.646Z,9.5
2022-10-02T09:10:43.212Z,9.5
2022-10-02T09:13:13.811Z,9.4
2022-10-02T09:15:44.475Z,9.4
2022-10-02T09:18:15.102Z,9.5
2022-10-02T09:20:55.710Z,9.5
2022-10-02T09:23:31.747Z,9.5
2022-10-02T09:26:02.317Z,9.6
2022-10-02T09:31:03.064Z,9.4
2022-10-02T09:33:33.753Z,9.6
2022-10-02T09:36:04.347Z,9.6
2022-10-02T09:38:44.943Z,9.6
2022-10-02T09:41:15.556Z,9.6
2022-10-02T09:43:46.164Z,9.5
2022-10-02T09:46:16.839Z,9.6
2022-10-02T09:48:48.011Z,9.6
2022-10-02T09:51:18.588Z,9.5
2022-10-02T09:53:59.221Z,9.5
2022-10-02T09:56:29.798Z,9.5
2022-10-02T09:59:00.396Z,9.4
2022-10-02T10:01:30.997Z,9.4
2022-10-02T10:04:01.701Z,9.5
2022-10-02T10:06:42.301Z,9.5
2022-10-02T10:11:43.082Z,9.4
2022-10-02T10:14:13.679Z,9.4
2022-10-02T10:16:44.328Z,9.4
2022-10-02T10:19:14.972Z,9.4
2022-10-02T10:21:55.554Z,9.4
2022-10-02T10:24:26.139Z,9.4
2022-10-02T10:26:56.721Z,9.5
2022-10-02T10:29:28.753Z,9.5
2022-10-02T10:31:59.376Z,9.4
2022-10-02T10:34:29.972Z,9.5
2022-10-02T10:37:10.567Z,9.4
2022-10-02T10:39:41.149Z,9.3
2022-10-02T10:42:11.743Z,9.3
2022-10-02T10:44:50.256Z,9.2
2022-10-02T10:47:20.855Z,9.2
2022-10-02T10:52:31.630Z,9.4
2022-10-02T10:57:32.359Z,9.2
2022-10-02T11:00:02.968Z,9.3
2022-10-02T11:02:33.584Z,9.3
2022-10-02T11:05:14.283Z,9.3
2022-10-02T11:07:44.885Z,9.3
2022-10-02T11:10:15.493Z,9.3
2022-10-02T11:12:46.084Z,9.3
2022-10-02T11:15:16.701Z,9.3
2022-10-02T11:17:47.271Z,9.3
2022-10-02T11:20:27.888Z,9.3
2022-10-02T11:22:58.471Z,9.2
2022-10-02T11:25:29.067Z,9.2
2022-10-02T11:27:59.667Z,9.3
2022-10-02T11:33:00.580Z,9.4
2022-10-02T11:35:41.186Z,9.4
2022-10-02T11:38:11.805Z,9.4
2022-10-02T11:40:42.388Z,9.3
2022-10-02T11:43:12.988Z,9.2
2022-10-02T11:45:43.739Z,9.2
2022-10-02T11:48:14.671Z,9.2
2022-10-02T11:50:55.288Z,9.2
2022-10-02T11:53:25.877Z,9.2
2022-10-02T11:55:56.438Z,9.2
2022-10-02T11:58:27.051Z,9.3
2022-10-02T12:00:57.624Z,9.3
2022-10-02T12:03:28.254Z,9.4
2022-10-02T12:06:08.847Z,9.4
2022-10-02T12:08:39.457Z,9.5
2022-10-02T12:13:40.191Z,9.4
2022-10-02T12:16:10.807Z,9.3
2022-10-02T12:18:51.693Z,9.2
2022-10-02T12:21:22.297Z,9.3
2022-10-02T12:23:52.880Z,9.3
2022-10-02T12:26:23.446Z,9.3
2022-10-02T12:28:54.055Z,9.3
2022-10-02T12:31:24.725Z,9.3
2022-10-02T12:34:06.211Z,9.2
2022-10-02T12:36:36.817Z,9.4
2022-10-02T12:39:07.404Z,9.3
2022-10-02T12:41:42.341Z,9.4
2022-10-02T12:44:12.993Z,9.4
2022-10-02T12:46:43.598Z,9.4
2022-10-02T12:49:24.192Z,9.5
2022-10-02T12:54:24.945Z,9.5
2022-10-02T12:56:55.559Z,9.4
2022-10-02T12:59:26.181Z,9.5
2022-10-02T13:01:56.779Z,9.4
2022-10-02T13:04:37.514Z,9.6
2022-10-02T13:07:08.105Z,9.5
2022-10-02T13:09:38.698Z,9.5
2022-10-02T13:12:09.290Z,9.5
2022-10-02T13:14:39.887Z,9.5
2022-10-02T13:17:20.474Z,9.5
2022-10-02T13:19:51.073Z,9.5
2022-10-02T13:22:21.648Z,9.5
2022-10-02T13:24:52.236Z,9.6
2022-10-02T13:27:22.808Z,9.6
2022-10-02T13:29:53.415Z,9.6
2022-10-02T13:35:04.164Z,9.6
2022-10-02T13:37:34.729Z,9.6
2022-10-02T13:40:05.351Z,9.7
2022-10-02T13:42:35.949Z,9.6
2022-10-02T13:45:06.549Z,9.6
2022-10-02T13:47:47.185Z,9.6
2022-10-02T13:50:18.007Z,9.7
2022-10-02T13:52:48.704Z,9.7
2022-10-02T13:55:19.300Z,9.8
2022-10-02T13:57:49.902Z,9.9
2022-10-02T14:00:20.517Z,9.9
2022-10-02T14:03:11.099Z,9.9
2022-10-02T14:05:41.754Z,9.8
2022-10-02T14:08:08.057Z,9.9
2022-10-02T14:10:38.654Z,9.8
2022-10-02T14:15:49.414Z,9.9
2022-10-02T14:18:20.063Z,10.0
2022-10-02T14:20:50.656Z,10.0
2022-10-02T14:23:21.229Z,10.0
2022-10-02T14:25:51.824Z,10.0
2022-10-02T14:28:22.476Z,10.0
2022-10-02T14:31:05.296Z,10.0
2022-10-02T14:33:36.216Z,10.0
2022-10-02T14:36:06.806Z,10.0
2022-10-02T14:38:37.402Z,10.0
2022-10-02T14:41:07.994Z,10.0
2022-10-02T14:43:38.618Z,9.9
2022-10-02T14:46:19.228Z,9.9
2022-10-02T14:48:49.829Z,9.7
2022-10-02T14:51:20.415Z,9.8
2022-10-02T14:56:21.159Z,9.7
2022-10-02T14:59:01.803Z,9.7
2022-10-02T15:01:32.422Z,9.8
2022-10-02T15:04:03.119Z,9.8
2022-10-02T15:06:33.938Z,9.7
2022-10-02T15:09:04.550Z,9.8
2022-10-02T15:11:35.232Z,9.8
2022-10-02T15:14:16.098Z,9.7
2022-10-02T15:16:46.684Z,9.8
2022-10-02T15:19:17.281Z,9.8
2022-10-02T15:21:47.972Z,9.8
2022-10-02T15:24:18.574Z,9.8
2022-10-02T15:26:49.146Z,9.8
2022-10-02T15:29:29.739Z,9.8
2022-10-02T15:32:00.414Z,9.8
2022-10-02T15:37:01.205Z,9.8
2022-10-02T15:39:31.808Z,9.7
2022-10-02T15:42:02.370Z,9.7
2022-10-02T15:44:43.004Z,9.6
2022-10-02T15:47:13.576Z,9.7
2022-10-02T15:49:44.154Z,9.7
2022-10-02T15:52:14.720Z,9.5
2022-10-02T15:54:45.321Z,9.5
2022-10-02T15:57:15.945Z,9.5
2022-10-02T15:59:56.570Z,9.4
2022-10-02T16:02:37.191Z,9.4
2022-10-02T16:05:07.826Z,9.4
2022-10-02T16:07:38.416Z,9.4
2022-10-02T16:10:09.014Z,9.3
2022-10-02T16:12:39.599Z,9.3
2022-10-02T16:17:50.365Z,9.2
2022-10-02T16:20:20.971Z,9.2
2022-10-02T16:22:51.571Z,9.2
2022-10-02T16:25:22.178Z,9.2
2022-10-02T16:28:02.803Z,9.2
2022-10-02T16:30:33.668Z,9.2
2022-10-02T16:33:04.238Z,9.1
2022-10-02T16:35:34.829Z,9.1
2022-10-02T16:38:05.390Z,9.1
2022-10-02T16:40:35.958Z,9.0
2022-10-02T16:43:16.539Z,9.0
2022-10-02T16:45:47.164Z,9.0
2022-10-02T16:48:17.958Z,8.9
2022-10-02T16:50:48.542Z,8.9
2022-10-02T16:53:19.131Z,8.9
2022-10-02T16:58:29.874Z,8.9
2022-10-02T17:01:00.512Z,8.8
2022-10-02T17:03:31.263Z,8.8
2022-10-02T17:06:01.856Z,8.8
2022-10-02T17:08:32.459Z,8.8
2022-10-02T17:11:03.146Z,8.8
2022-10-02T17:13:43.757Z,8.8
2022-10-02T17:16:17.616Z,8.8
2022-10-02T17:18:41.355Z,8.8
2022-10-02T17:21:11.950Z,8.8
2022-10-02T17:23:42.578Z,8.8
2022-10-02T17:26:13.170Z,8.8
2022-10-02T17:29:03.799Z,8.8
2022-10-02T17:31:34.505Z,8.8
2022-10-02T17:34:05.399Z,8.8
2022-10-02T17:39:06.150Z,8.7
2022-10-02T17:41:46.719Z,8.7
2022-10-02T17:44:17.303Z,8.7
2022-10-02T17:46:42.137Z,8.7
2022-10-02T17:49:12.743Z,8.6
2022-10-02T17:51:52.637Z,8.6
2022-10-02T17:54:13.620Z,8.6
2022-10-02T17:56:54.233Z,8.6
2022-10-02T17:59:24.852Z,8.6
2022-10-02T18:01:55.494Z,8.6
2022-10-02T18:04:26.221Z,8.6
2022-10-02T18:06:56.811Z,8.6
2022-10-02T18:09:27.412Z,8.5
2022-10-02T18:12:07.978Z,8.5
2022-10-02T18:14:38.564Z,8.5
2022-10-02T18:19:39.297Z,8.5
2022-10-02T18:22:19.910Z,8.5
2022-10-02T18:24:50.489Z,8.5
2022-10-02T18:27:31.069Z,8.5
2022-10-02T18:30:01.747Z,8.5
2022-10-02T18:32:32.361Z,8.5
2022-10-02T18:35:03.028Z,8.5
2022-10-02T18:37:33.617Z,8.5
2022-10-02T18:40:14.216Z,8.5
2022-10-02T18:42:44.796Z,8.5
2022-10-02T18:45:15.403Z,8.5
2022-10-02T18:47:46.121Z,8.5
2022-10-02T18:50:16.733Z,8.4
2022-10-02T18:52:47.320Z,8.4
2022-10-02T18:55:27.941Z,8.5
2022-10-02T19:00:28.702Z,8.4
2022-10-02T19:02:59.416Z,8.4
2022-10-02T19:05:29.984Z,8.4
2022-10-02T19:08:00.578Z,8.4
2022-10-02T19:10:41.182Z,8.4
2022-10-02T19:13:16.701Z,8.4
2022-10-02T19:15:38.368Z,8.4
2022-10-02T19:18:09.257Z,8.4
2022-10-02T19:20:39.857Z,8.4
2022-10-02T19:23:20.463Z,8.4
2022-10-02T19:25:51.050Z,8.4
2022-10-02T19:28:21.647Z,8.4
2022-10-02T19:30:52.387Z,8.4
2022-10-02T19:33:23.028Z,8.4
2022-10-02T19:35:53.617Z,8.4
2022-10-02T19:41:04.372Z,8.4
2022-10-02T19:43:34.966Z,8.4
2022-10-02T19:46:05.617Z,8.4
2022-10-02T19:48:36.300Z,8.4
2022-10-02T19:51:06.880Z,8.3
2022-10-02T19:53:47.468Z,8.3
2022-10-02T19:56:18.018Z,8.3
2022-10-02T19:58:48.636Z,8.3
2022-10-02T20:01:19.245Z,8.3
2022-10-02T20:03:50.220Z,8.3
2022-10-02T20:06:30.794Z,8.3
2022-10-02T20:09:01.404Z,8.3
2022-10-02T20:11:32.015Z,8.3
2022-10-02T20:14:02.652Z,8.3
2022-10-02T20:16:43.281Z,8.3
2022-10-02T20:21:54.230Z,8.3
2022-10-02T20:24:24.849Z,8.3
2022-10-02T20:26:55.447Z,8.3
2022-10-02T20:29:26.032Z,8.4
2022-10-02T20:31:57.470Z,8.4
2022-10-02T20:34:28.237Z,8.4
2022-10-02T20:37:08.825Z,8.4
2022-10-02T20:39:39.419Z,8.4
2022-10-02T20:42:02.811Z,8.4
2022-10-02T20:44:33.398Z,8.3
2022-10-02T20:47:04.003Z,8.3
2022-10-02T20:49:44.624Z,8.2
2022-10-02T20:52:15.196Z,8.2
2022-10-02T20:54:45.858Z,8.2
2022-10-02T20:57:16.456Z,8.2
2022-10-02T21:02:21.933Z,8.3
2022-10-02T21:05:02.594Z,8.3
2022-10-02T21:07:33.165Z,8.3
2022-10-02T21:10:03.756Z,8.3
2022-10-02T21:12:34.351Z,8.3
2022-10-02T21:15:04.947Z,8.3
2022-10-02T21:17:35.628Z,8.3
2022-10-02T21:20:19.534Z,8.3
2022-10-02T21:22:49.744Z,8.3
2022-10-02T21:25:20.350Z,8.3
2022-10-02T21:27:51.010Z,8.3
2022-10-02T21:30:21.722Z,8.3
2022-10-02T21:33:02.425Z,8.3
2022-10-02T21:35:33.012Z,8.3
2022-10-02T21:38:03.719Z,8.2
2022-10-02T21:43:04.424Z,8.2
2022-10-02T21:45:35.036Z,8.2
2022-10-02T21:48:15.762Z,8.2
2022-10-02T21:50:46.357Z,8.2
2022-10-02T21:53:16.914Z,8.2
2022-10-02T21:55:47.490Z,8.2
2022-10-02T21:58:18.089Z,8.2
2022-10-02T22:00:48.706Z,8.2
2022-10-02T22:03:29.385Z,8.1
2022-10-02T22:06:00.059Z,8.1
2022-10-02T22:08:30.848Z,8.1
2022-10-02T22:11:01.444Z,8.1
2022-10-02T22:13:32.048Z,8.1
2022-10-02T22:16:12.708Z,8.1
2022-10-02T22:18:43.446Z,8.1
2022-10-02T22:23:44.209Z,8.0
2022-10-02T22:26:14.788Z,8.0
2022-10-02T22:28:45.376Z,8.0
2022-10-02T22:31:25.994Z,8.0
2022-10-02T22:33:57.225Z,8.0
2022-10-02T22:36:31.876Z,8.0
2022-10-02T22:39:02.488Z,8.0
2022-10-02T22:41:33.092Z,7.9
2022-10-02T22:44:13.703Z,7.9
2022-10-02T22:46:44.353Z,7.9
2022-10-02T22:49:14.983Z,7.9
2022-10-02T22:51:45.589Z,7.8
2022-10-02T22:54:10.444Z,7.8
2022-10-02T22:56:41.029Z,7.8
2022-10-02T22:59:21.665Z,7.8
2022-10-02T23:04:22.402Z,7.8
2022-10-02T23:06:52.993Z,7.7
2022-10-02T23:09:23.582Z,7.7
2022-10-02T23:11:54.161Z,7.6
2022-10-02T23:14:34.766Z,7.6
2022-10-02T23:17:15.344Z,7.6
2022-10-02T23:19:45.925Z,7.6
2022-10-02T23:22:16.546Z,7.5
2022-10-02T23:24:47.118Z,7.5
2022-10-02T23:27:27.725Z,7.5
2022-10-02T23:29:58.386Z,7.5
2022-10-02T23:32:28.982Z,7.5
2022-10-02T23:34:59.589Z,7.5
2022-10-02T23:37:30.184Z,7.5
2022-10-02T23:40:00.766Z,7.5
2022-10-02T23:45:11.522Z,7.5
2022-10-02T23:47:42.104Z,7.5
2022-10-02T23:50:12.701Z,7.5
2022-10-02T23:52:43.291Z,7.5
2022-10-02T23:55:13.882Z,7.4
2022-10-02T23:57:54.478Z,7.4
